Flight Track Log - Related Links

Times and Time Zones

All times are in EDT time to prevent confusion due to time zone crossing. See the AIE352 flight status page for this flight to view local times or setup timezone preferences in your user account.

Time Position Orientation Groundspeed Altitude Reporting Facility
EDT Latitude Longitude Course Direction KTS MPH feet Rate Location/Type
Tue 01:32:21 PM 45.3000 -75.6667 11° North 10 12 400  Level Montreal Center
Tue 01:37:03 PM 45.3000 -75.6667 11° North 140 161 500 316 Climbing Montreal Center
Tue 01:38:03 PM 45.2667 -75.7333 235° Southwest 200 230 2,200 1,800 Climbing Montreal Center
Tue 01:39:03 PM 45.2333 -75.8000 235° Southwest 240 276 4,100 2,300 Climbing Montreal Center
Tue 01:40:03 PM 45.2500 -75.9000 283° West 250 288 6,800 2,400 Climbing Montreal Center
Tue 01:41:03 PM 45.3167 -75.9167 350° North 280 322 8,900 1,950 Climbing Montreal Center
Tue 01:42:00 PM 46.0228 -75.9893 11° North  Level FlightAware Approximate
Tue 01:42:03 PM 45.4167 -75.9500 347° North 300 345 10,700  Level Montreal Center
Tue 01:43:03 PM 45.5167 -75.9500 360° North 340 391 11,800 1,400 Climbing Montreal Center
Tue 01:44:03 PM 45.6000 -75.9667 352° North 370 426 13,500 1,700 Climbing Montreal Center
Tue 01:45:03 PM 45.7167 -76.0000 349° North 380 437 15,200 1,800 Climbing Montreal Center
Tue 01:46:03 PM 45.8167 -76.0167 353° North 380 437 17,100 1,750 Climbing Montreal Center
Tue 01:47:03 PM 45.9333 -76.0167 360° North 380 437 18,700 1,400 Climbing Montreal Center
Tue 01:48:03 PM 46.0333 -76.0000 North 400 460 19,900 1,200 Climbing Montreal Center
Tue 01:49:03 PM 46.1500 -75.9667 11° North 410 472 21,100 1,250 Climbing Montreal Center
Tue 01:50:03 PM 46.2667 -75.9500 North 420 483 22,400 1,250 Climbing Montreal Center
Tue 01:51:03 PM 46.3667 -75.9167 13° North 420 483 23,600 1,200 Climbing Montreal Center
Tue 01:52:03 PM 46.5000 -75.8667 14° North 430 495 24,800 1,100 Climbing Montreal Center
Tue 01:53:03 PM 46.6000 -75.8500 North 430 495 25,800 1,200 Climbing Montreal Center
Tue 01:54:03 PM 46.7167 -75.8167 11° North 430 495 27,200 1,100 Climbing Montreal Center
Tue 01:55:03 PM 46.8333 -75.8000 North 420 483 28,000 900 Climbing Montreal Center
Tue 01:56:03 PM 46.9500 -75.7500 16° North 420 483 29,000 900 Climbing Montreal Center
Tue 01:57:03 PM 47.0667 -75.7167 11° North 420 483 29,800 950 Climbing Montreal Center
Tue 01:58:03 PM 47.1833 -75.7000 North 420 483 30,900 600 Climbing Montreal Center
Tue 01:59:03 PM 47.3000 -75.6667 11° North 420 483 31,000 50 Climbing Montreal Center
Tue 02:00:03 PM 47.4167 -75.6500 North 410 472 31,000  Level Montreal Center
Tue 02:01:03 PM 47.5333 -75.6000 16° North 410 472 31,000  Level Montreal Center
Tue 02:02:03 PM 47.6333 -75.5667 13° North 400 460 31,000  Level Montreal Center
Tue 02:03:03 PM 47.7333 -75.5500 North 410 472 31,000  Level Montreal Center
Tue 02:04:03 PM 47.8500 -75.5167 11° North 400 460 31,000  Level Montreal Center
Tue 02:05:03 PM 47.9667 -75.4833 11° North 410 472 31,000  Level Montreal Center
Tue 02:06:03 PM 48.0833 -75.4333 16° North 410 472 31,000  Level Montreal Center
Tue 02:07:03 PM 48.2000 -75.4167 North 410 472 31,000  Level Montreal Center
Tue 02:08:03 PM 48.3167 -75.3833 11° North 410 472 31,000  Level Montreal Center
Tue 02:09:03 PM 48.4333 -75.3667 North 400 460 31,000  Level Montreal Center
Tue 02:10:03 PM 48.5333 -75.3333 12° North 400 460 31,000  Level Montreal Center
Tue 02:11:03 PM 48.6500 -75.3000 11° North 400 460 31,000  Level Montreal Center
Tue 02:12:03 PM 48.7500 -75.2833 North 400 460 31,000  Level Montreal Center
Tue 02:13:03 PM 48.8667 -75.2333 16° North 400 460 31,000  Level Montreal Center
Tue 02:14:03 PM 48.9667 -75.2000 12° North 400 460 31,000  Level Montreal Center
Tue 02:15:03 PM 49.0833 -75.1667 11° North 410 472 31,000  Level Montreal Center
Tue 02:16:03 PM 49.2000 -75.1500 North 410 472 31,000  Level Montreal Center
Tue 02:17:03 PM 49.3167 -75.1167 11° North 410 472 31,000  Level Montreal Center
Tue 02:18:03 PM 49.4333 -75.0667 16° North 420 483 31,000  Level Montreal Center
Tue 02:19:03 PM 49.5500 -75.0333 11° North 420 483 31,000  Level Montreal Center
Tue 02:20:03 PM 49.6500 -75.0000 12° North 420 483 31,000  Level Montreal Center
Tue 02:21:03 PM 49.7667 -74.9833 North 420 483 31,000  Level Montreal Center
Tue 02:22:03 PM 49.8833 -74.9167 20° North 420 483 31,000  Level Montreal Center
Tue 02:23:03 PM 50.0000 -74.9000 North 420 483 31,000  Level Montreal Center
Tue 02:24:03 PM 50.1167 -74.8667 10° North 420 483 31,000  Level Montreal Center
Tue 02:25:03 PM 50.2333 -74.8333 10° North 420 483 31,000  Level Montreal Center
Tue 02:26:03 PM 50.3500 -74.8000 10° North 420 483 31,000  Level Montreal Center
Tue 02:27:03 PM 50.4667 -74.7500 15° North 420 483 31,000  Level Montreal Center
Tue 02:28:03 PM 50.5833 -74.7167 10° North 420 483 31,000  Level Montreal Center
Tue 02:29:03 PM 50.7000 -74.6833 10° North 420 483 31,000  Level Montreal Center
Tue 02:30:03 PM 50.8167 -74.6667 North 420 483 31,000  Level Montreal Center
Tue 02:31:03 PM 50.9333 -74.6333 10° North 420 483 31,000  Level Montreal Center
Tue 02:32:03 PM 51.0667 -74.5667 17° North 420 483 31,000  Level Montreal Center
Tue 02:33:03 PM 51.1667 -74.5500 North 420 483 31,000  Level Montreal Center
Tue 02:34:03 PM 51.2833 -74.5167 10° North 420 483 31,000  Level Montreal Center
Tue 02:35:03 PM 51.4000 -74.4833 10° North 420 483 31,000  Level Montreal Center
Tue 02:36:03 PM 51.5167 -74.4167 20° North 420 483 31,000  Level Montreal Center
Tue 02:37:03 PM 51.6333 -74.4000 North 420 483 31,000  Level Montreal Center
Tue 02:38:03 PM 51.7500 -74.3667 10° North 420 483 31,000  Level Montreal Center
Tue 02:39:03 PM 51.8667 -74.3333 10° North 420 483 31,000  Level Montreal Center
Tue 02:40:03 PM 51.9833 -74.2667 19° North 420 483 31,000  Level Montreal Center
Tue 02:41:03 PM 52.0833 -74.2333 12° North 420 483 31,000  Level Montreal Center
Tue 02:42:03 PM 52.2000 -74.2000 10° North 420 483 31,000  Level Montreal Center
Tue 02:43:03 PM 52.3167 -74.1667 10° North 420 483 31,000  Level Montreal Center
Tue 02:44:03 PM 52.4333 -74.1333 10° North 420 483 31,000  Level Montreal Center
Tue 02:45:03 PM 52.5500 -74.1167 North 410 472 31,000  Level Montreal Center
Tue 02:46:03 PM 52.6500 -74.0500 22° Northeast 410 472 31,000  Level Montreal Center
Tue 02:47:03 PM 52.7667 -74.0167 10° North 410 472 31,000  Level Montreal Center
Tue 02:48:03 PM 52.8833 -73.9833 10° North 410 472 31,000  Level Montreal Center
Tue 02:49:03 PM 53.0000 -73.9500 10° North 410 472 31,000 100 Level Montreal Center
Tue 02:50:03 PM 53.1000 -73.9167 11° North 410 472 31,200 750 Climbing Montreal Center
Tue 02:51:03 PM 53.2167 -73.8500 19° North 400 460 32,500 900 Climbing Montreal Center
Tue 02:52:03 PM 53.3167 -73.8167 11° North 390 449 33,000 250 Climbing Montreal Center
Tue 02:53:03 PM 53.4333 -73.7833 10° North 400 460 33,000  Level Montreal Center
Tue 02:54:03 PM 53.5333 -73.7500 11° North 400 460 33,000  Level Montreal Center
Tue 02:55:03 PM 53.6500 -73.7167 10° North 400 460 33,000  Level Montreal Center
Tue 02:56:03 PM 53.7667 -73.6833 10° North 400 460 33,000  Level Montreal Center
Tue 02:57:03 PM 53.8667 -73.6167 21° North 410 472 33,000  Level Montreal Center
Tue 02:58:03 PM 53.9833 -73.5833 10° North 410 472 33,000  Level Montreal Center
Tue 02:59:03 PM 54.1000 -73.5500 10° North 410 472 33,000  Level Montreal Center
Tue 03:00:03 PM 54.2167 -73.4833 18° North 420 483 33,000  Level Montreal Center
Tue 03:01:03 PM 54.3333 -73.4500 North 420 483 33,000  Level Montreal Center
Tue 03:02:03 PM 54.4500 -73.4167 North 420 483 33,000  Level Montreal Center
Tue 03:03:03 PM 54.5500 -73.3833 11° North 420 483 33,000  Level Montreal Center
Tue 03:04:03 PM 54.6667 -73.3167 18° North 410 472 33,000  Level Montreal Center
Tue 03:05:03 PM 54.7833 -73.2833 North 420 483 33,000  Level Montreal Center
Tue 03:06:03 PM 54.9000 -73.2167 18° North 420 483 33,000  Level Montreal Center
Tue 03:07:03 PM 55.0167 -73.1667 14° North 420 483 33,000  Level Montreal Center
Tue 03:08:03 PM 55.1500 -73.1333 North 420 483 33,000  Level Montreal Center
Tue 03:09:03 PM 55.2333 -73.0667 25° Northeast 420 483 33,000  Level Montreal Center
Tue 03:10:03 PM 55.3500 -73.0333 North 420 483 33,000  Level Montreal Center
Tue 03:11:03 PM 55.4833 -73.0000 North 420 483 33,000  Level Montreal Center
Tue 03:12:03 PM 55.5833 -72.9167 25° Northeast 420 483 33,000  Level Montreal Center
Tue 03:13:03 PM 55.7333 -72.8833 North 430 495 33,000  Level Montreal Center
Tue 03:14:03 PM 55.8333 -72.8500 11° North 430 495 33,000  Level Montreal Center
Tue 03:15:03 PM 55.9333 -72.7833 20° North 430 495 33,000  Level Montreal Center
Tue 03:16:03 PM 56.0500 -72.7333 13° North 420 483 33,000  Level Montreal Center
Tue 03:17:03 PM 56.1833 -72.7000 North 430 495 33,000  Level Montreal Center
Tue 03:18:03 PM 56.2833 -72.6333 20° North 420 483 33,000  Level Montreal Center
Tue 03:19:03 PM 56.4000 -72.5833 13° North 430 495 33,000  Level Montreal Center
Tue 03:20:03 PM 56.5000 -72.5500 10° North 400 460 33,000  Level Montreal Center
Tue 03:21:03 PM 56.6167 -72.5000 13° North 390 449 33,000  Level Montreal Center
Tue 03:22:03 PM 56.7167 -72.4667 10° North 380 437 33,000  Level Montreal Center
Tue 03:23:03 PM 56.8167 -72.4000 20° North 390 449 33,000  Level Montreal Center
Tue 03:24:03 PM 56.9333 -72.3500 13° North 410 472 33,000  Level Montreal Center
Tue 03:25:03 PM 57.0500 -72.2833 17° North 420 483 33,000  Level Montreal Center
Tue 03:26:03 PM 57.1667 -72.2333 13° North 440 506 33,000  Level Montreal Center
Tue 03:27:03 PM 57.3000 -72.2000 North 440 506 33,000  Level Montreal Center
Tue 03:28:03 PM 57.4167 -72.1167 21° North 440 506 33,000  Level Montreal Center
Tue 03:29:03 PM 57.5333 -72.0667 13° North 440 506 33,000  Level Montreal Center
Tue 03:30:03 PM 57.6500 -72.0333 North 450 518 33,000  Level Montreal Center
Tue 03:31:03 PM 57.7833 -71.9500 18° North 450 518 33,000  Level Montreal Center
Tue 03:32:03 PM 57.9000 -71.9167 North 450 518 33,000  Level Montreal Center
Tue 03:33:03 PM 58.0167 -71.8333 21° North 450 518 33,000  Level Montreal Center
Tue 03:34:03 PM 58.1500 -71.7833 11° North 460 529 33,000  Level Montreal Center
Tue 03:35:03 PM 58.2833 -71.7000 18° North 470 541 33,000  Level Montreal Center
Tue 03:36:03 PM 58.4000 -71.6667 North 470 541 33,000  Level Montreal Center
Tue 03:37:03 PM 58.5333 -71.5833 18° North 460 529 33,000  Level Montreal Center
Tue 03:38:03 PM 58.6667 -71.5333 11° North 480 552 33,000  Level Montreal Center
Tue 03:39:03 PM 58.7833 -71.4500 20° North 460 529 33,000  Level Montreal Center
Tue 03:40:03 PM 58.9333 -71.4000 10° North 480 552 33,000  Level Montreal Center
Tue 03:41:03 PM 59.0500 -71.3167 20° North 480 552 33,000  Level Montreal Center
Tue 03:42:03 PM 59.1833 -71.2667 11° North 470 541 33,000  Level Montreal Center
Tue 03:43:03 PM 59.3167 -71.1833 18° North 470 541 33,000  Level Montreal Center
Tue 03:44:03 PM 59.4333 -71.1333 12° North 460 529 33,000  Level Montreal Center
Tue 03:45:03 PM 59.5500 -71.0500 20° North 460 529 33,000  Level Montreal Center
Tue 03:46:03 PM 59.6667 -71.0000 12° North 460 529 33,000  Level Montreal Center
Tue 03:47:03 PM 59.7833 -70.9500 12° North 460 529 33,000  Level Montreal Center
Tue 03:48:03 PM 59.9167 -70.8667 17° North 460 529 33,000  Level Montreal Center
Tue 03:49:03 PM 60.0333 -70.8167 12° North 460 529 33,000  Level Montreal Center
Tue 03:50:03 PM 60.1667 -70.7333 17° North 460 529 33,000  Level Montreal Center
Tue 03:51:03 PM 60.2833 -70.6667 16° North 470 541 33,000  Level Montreal Center
Tue 03:52:03 PM 60.4167 -70.5833 17° North 460 529 33,000  Level Montreal Center
Tue 03:53:03 PM 60.5333 -70.5333 12° North 460 529 33,000  Level Montreal Center
Tue 03:54:03 PM 60.6667 -70.4833 10° North 450 518 33,000  Level Montreal Center
Tue 03:55:03 PM 60.8000 -70.3833 20° North 450 518 33,000  Level Montreal Center
Tue 03:56:03 PM 60.9000 -70.3000 22° Northeast 440 506 33,000  Level Montreal Center
Tue 03:57:03 PM 61.0167 -70.2500 12° North 440 506 33,000  Level Montreal Center
Tue 03:58:03 PM 61.1333 -70.1833 15° North 440 506 33,000  Level Montreal Center
Tue 03:59:03 PM 61.2500 -70.1000 19° North 430 495 33,000  Level Montreal Center
Tue 04:00:03 PM 61.3667 -70.0333 15° North 440 506 33,000  Level Montreal Center
Tue 04:01:03 PM 61.4833 -69.9833 12° North 430 495 33,000  Level Montreal Center
Tue 04:02:03 PM 61.6167 -69.8833 20° North 430 495 33,000  Level Montreal Center
Tue 04:03:03 PM 61.7167 -69.8333 13° North 430 495 33,000  Level Montreal Center
Tue 04:04:03 PM 61.8333 -69.7833 11° North 430 495 33,000  Level Montreal Center
Tue 04:05:03 PM 61.9500 -69.6833 22° Northeast 440 506 33,000  Level Montreal Center
Tue 04:06:03 PM 62.0667 -69.6167 15° North 440 506 33,000  Level Montreal Center
Tue 04:07:03 PM 62.1833 -69.5667 11° North 440 506 33,000 -1,350 Level Montreal Center
Tue 04:08:03 PM 62.3000 -69.4667 22° Northeast 440 506 30,300 -2,650 Descending Montreal Center
Tue 04:09:03 PM 62.4167 -69.4000 15° North 430 495 27,700 -2,800 Descending Montreal Center
Tue 04:10:03 PM 62.5333 -69.3167 18° North 440 506 24,700 -2,800 Descending Montreal Center
Tue 04:11:03 PM 62.6500 -69.2500 15° North 440 506 22,100 -2,550 Descending Montreal Center
Tue 04:12:03 PM 62.7667 -69.1833 15° North 430 495 19,600 -2,650 Descending Montreal Center
Tue 04:13:03 PM 62.8667 -69.0833 25° Northeast 420 483 16,800 -2,600 Descending Montreal Center
Tue 04:14:03 PM 62.9833 -69.0167 15° North 410 472 14,400 -2,300 Descending Montreal Center
Tue 04:15:03 PM 63.0833 -68.9667 13° North 400 460 12,200 -1,950 Descending Montreal Center
Tue 04:16:03 PM 63.2000 -68.9000 14° North 390 449 10,500 -1,000 Descending Montreal Center
Tue 04:17:03 PM 63.2833 -68.8500 15° North 340 391 10,200 -950 Descending Montreal Center
Tue 04:18:03 PM 63.3667 -68.7833 20° North 310 357 8,600 -1,550 Descending Montreal Center
Tue 04:19:03 PM 63.4333 -68.7333 19° North 300 345 7,100 -1,350 Descending Montreal Center
Tue 04:20:03 PM 63.5167 -68.6667 20° North 290 334 5,900 -1,150 Descending Montreal Center
Tue 04:21:03 PM 63.5667 -68.5500 46° Northeast 260 299 4,800 -750 Descending Montreal Center
Tue 04:22:03 PM 63.6000 -68.4333 57° Northeast 230 265 4,400 -550 Descending Montreal Center
Tue 04:23:03 PM 63.6167 -68.3500 66° East 200 230 3,700 -850 Descending Montreal Center
Tue 04:24:03 PM 63.6667 -68.3000 24° Northeast 190 219 2,700 -1,000 Descending Montreal Center
Tue 04:25:03 PM 63.7167 -68.3500 336° Northwest 170 196 1,700 -900 Descending Montreal Center
Tue 04:26:03 PM 63.7500 -68.4333 312° West 160 184 900 -800 Descending Montreal Center
Tue 04:27:03 PM 63.7833 -68.5000 319° Northwest 160 184 100 -350 Descending Montreal Center
Tue 04:28:03 PM 63.7833 -68.5000 319° Northwest 40 46 200 100 Climbing Montreal Center

Login

Don't have an account? Register now (free) for customized features, flight alerts, and more!